createdAt,value
2019-01-25T00:01:10.249Z,-5.70
2019-01-25T00:03:39.809Z,-5.70
2019-01-25T00:06:09.983Z,-5.70
2019-01-25T00:08:39.592Z,-5.70
2019-01-25T00:11:09.161Z,-5.70
2019-01-25T00:13:39.043Z,-5.70
2019-01-25T00:16:08.580Z,-5.70
2019-01-25T00:18:38.040Z,-5.70
2019-01-25T00:21:08.144Z,-5.70
2019-01-25T00:23:37.704Z,-5.70
2019-01-25T00:26:07.198Z,-5.70
2019-01-25T00:28:36.670Z,-5.70
2019-01-25T00:31:06.210Z,-5.60
2019-01-25T00:33:35.856Z,-5.70
2019-01-25T00:36:05.428Z,-5.70
2019-01-25T00:38:35.031Z,-5.60
2019-01-25T00:41:05.114Z,-5.60
2019-01-25T00:43:34.630Z,-5.50
2019-01-25T00:46:04.437Z,-5.50
2019-01-25T00:48:33.976Z,-5.50
2019-01-25T00:51:03.420Z,-5.50
2019-01-25T00:53:32.924Z,-5.60
2019-01-25T00:56:02.813Z,-5.50
2019-01-25T00:58:32.298Z,-5.50
2019-01-25T01:01:01.785Z,-5.50
2019-01-25T01:03:31.372Z,-5.40
2019-01-25T01:06:00.867Z,-5.40
2019-01-25T01:08:30.361Z,-5.40
2019-01-25T01:10:59.937Z,-5.40
2019-01-25T01:13:29.393Z,-5.30
2019-01-25T01:15:58.872Z,-5.30
2019-01-25T01:18:28.375Z,-5.40
2019-01-25T01:20:57.853Z,-5.30
2019-01-25T01:23:27.345Z,-5.40
2019-01-25T01:25:56.837Z,-5.50
2019-01-25T01:28:26.438Z,-5.50
2019-01-25T01:30:55.903Z,-5.50
2019-01-25T01:33:25.393Z,-5.60
2019-01-25T01:35:54.846Z,-5.50
2019-01-25T01:38:24.393Z,-5.60
2019-01-25T01:40:53.891Z,-5.60
2019-01-25T01:43:23.349Z,-5.60
2019-01-25T01:45:52.868Z,-5.60
2019-01-25T01:48:22.341Z,-5.60
2019-01-25T01:50:51.814Z,-5.60
2019-01-25T01:53:21.417Z,-5.70
2019-01-25T01:55:50.960Z,-5.70
2019-01-25T01:58:20.419Z,-5.70
2019-01-25T02:00:49.904Z,-5.60
2019-01-25T02:03:19.465Z,-5.70
2019-01-25T02:05:48.914Z,-5.70
2019-01-25T02:08:18.379Z,-5.70
2019-01-25T02:10:47.898Z,-5.70
2019-01-25T02:13:17.394Z,-5.70
2019-01-25T02:15:46.839Z,-5.70
2019-01-25T02:18:16.327Z,-5.70
2019-01-25T02:20:46.163Z,-5.80
2019-01-25T02:23:15.645Z,-5.80
2019-01-25T02:25:45.369Z,-5.80
2019-01-25T02:28:14.838Z,-5.80
2019-01-25T02:30:44.278Z,-5.80
2019-01-25T02:33:13.807Z,-5.80
2019-01-25T02:35:43.323Z,-5.80
2019-01-25T02:38:12.760Z,-5.80
2019-01-25T02:40:42.273Z,-5.80
2019-01-25T02:43:11.903Z,-5.80
2019-01-25T02:45:41.396Z,-5.80
2019-01-25T02:48:10.896Z,-5.80
2019-01-25T02:50:40.796Z,-5.70
2019-01-25T02:53:10.251Z,-5.70
2019-01-25T02:55:40.124Z,-5.80
2019-01-25T02:58:09.631Z,-5.80
2019-01-25T03:00:39.473Z,-5.80
2019-01-25T03:03:08.943Z,-5.80
2019-01-25T03:05:38.443Z,-5.80
2019-01-25T03:08:08.244Z,-5.80
2019-01-25T03:10:37.718Z,-5.80
2019-01-25T03:13:07.456Z,-5.80
2019-01-25T03:15:36.900Z,-5.80
2019-01-25T03:18:06.379Z,-5.80
2019-01-25T03:20:35.964Z,-5.80
2019-01-25T03:23:05.434Z,-5.80
2019-01-25T03:25:34.889Z,-5.80
2019-01-25T03:28:04.679Z,-5.90
2019-01-25T03:30:34.186Z,-5.80
2019-01-25T03:33:03.617Z,-5.90
2019-01-25T03:35:33.069Z,-5.90
2019-01-25T03:38:02.599Z,-5.90
2019-01-25T03:40:32.076Z,-5.90
2019-01-25T03:43:01.557Z,-5.90
2019-01-25T03:45:31.227Z,-5.90
2019-01-25T03:48:00.758Z,-5.90
2019-01-25T03:50:30.969Z,-5.90
2019-01-25T03:53:00.446Z,-5.90
2019-01-25T03:55:30.072Z,-5.90
2019-01-25T03:57:59.554Z,-5.80
2019-01-25T04:00:29.993Z,-5.80
2019-01-25T04:02:59.687Z,-5.80
2019-01-25T04:05:29.174Z,-5.80
2019-01-25T04:07:58.678Z,-5.80
2019-01-25T04:10:29.375Z,-5.80
2019-01-25T04:12:58.840Z,-5.90
2019-01-25T04:15:32.973Z,-5.90
2019-01-25T04:18:02.420Z,-5.80
2019-01-25T04:20:32.393Z,-5.80
2019-01-25T04:23:01.851Z,-5.90
2019-01-25T04:25:31.413Z,-5.90
2019-01-25T04:28:00.908Z,-5.80
2019-01-25T04:30:32.883Z,-5.80
2019-01-25T04:33:02.519Z,-5.80
2019-01-25T04:35:32.006Z,-5.80
2019-01-25T04:38:01.534Z,-5.80
2019-01-25T04:40:30.992Z,-5.90
2019-01-25T04:43:00.473Z,-5.90
2019-01-25T04:45:30.364Z,-5.90
2019-01-25T04:47:59.812Z,-5.90
2019-01-25T04:50:29.323Z,-5.90
2019-01-25T04:52:58.799Z,-5.80
2019-01-25T04:55:33.717Z,-5.80
2019-01-25T04:58:21.603Z,-5.80
2019-01-25T05:00:51.118Z,-5.90
2019-01-25T05:03:22.846Z,-5.80
2019-01-25T05:05:52.371Z,-5.80
2019-01-25T05:08:22.503Z,-5.80
2019-01-25T05:10:52.045Z,-5.80
2019-01-25T05:13:21.631Z,-5.80
2019-01-25T05:15:51.091Z,-5.80
2019-01-25T05:18:20.572Z,-5.80
2019-01-25T05:20:50.903Z,-5.80
2019-01-25T05:23:20.632Z,-5.80
2019-01-25T05:25:50.129Z,-5.80
2019-01-25T05:28:20.510Z,-5.80
2019-01-25T05:30:58.527Z,-5.80
2019-01-25T05:33:28.152Z,-5.80
2019-01-25T05:35:57.618Z,-5.80
2019-01-25T05:38:27.068Z,-5.80
2019-01-25T05:40:56.593Z,-5.80
2019-01-25T05:43:26.159Z,-5.70
2019-01-25T05:45:55.609Z,-5.70
2019-01-25T05:48:32.151Z,-5.70
2019-01-25T05:51:03.248Z,-5.70
2019-01-25T05:53:32.785Z,-5.70
2019-01-25T05:56:02.315Z,-5.70
2019-01-25T05:58:31.780Z,-5.70
2019-01-25T06:01:01.530Z,-5.70
2019-01-25T06:03:31.055Z,-5.70
2019-01-25T06:06:02.469Z,-5.80
2019-01-25T06:08:33.016Z,-5.70
2019-01-25T06:11:04.410Z,-5.70
2019-01-25T06:13:33.863Z,-5.70
2019-01-25T06:16:03.628Z,-5.70
2019-01-25T06:18:33.150Z,-5.70
2019-01-25T06:21:02.738Z,-5.70
2019-01-25T06:23:32.264Z,-5.70
2019-01-25T06:26:01.833Z,-5.70
2019-01-25T06:28:31.283Z,-5.70
2019-01-25T06:31:00.860Z,-5.70
2019-01-25T06:33:30.370Z,-5.70
2019-01-25T06:35:59.797Z,-5.70
2019-01-25T06:38:29.374Z,-5.70
2019-01-25T06:40:58.876Z,-5.70
2019-01-25T06:43:28.322Z,-5.70
2019-01-25T06:45:57.793Z,-5.70
2019-01-25T06:48:27.424Z,-5.60
2019-01-25T06:50:56.882Z,-5.70
2019-01-25T06:53:26.346Z,-5.60
2019-01-25T06:55:55.938Z,-5.60
2019-01-25T06:58:34.159Z,-5.60
2019-01-25T07:01:18.093Z,-5.50
2019-01-25T07:03:47.560Z,-5.50
2019-01-25T07:06:17.151Z,-5.40
2019-01-25T07:08:46.672Z,-5.40
2019-01-25T07:11:16.145Z,-5.40
2019-01-25T07:13:45.973Z,-5.30
2019-01-25T07:16:15.470Z,-5.30
2019-01-25T07:18:44.915Z,-5.30
2019-01-25T07:21:14.717Z,-5.30
2019-01-25T07:23:44.213Z,-5.20
2019-01-25T07:26:13.800Z,-5.20
2019-01-25T07:28:43.277Z,-5.20
2019-01-25T07:31:13.124Z,-5.10
2019-01-25T07:33:42.735Z,-5.10
2019-01-25T07:36:12.217Z,-5.00
2019-01-25T07:38:41.668Z,-5.00
2019-01-25T07:41:11.361Z,-5.10
2019-01-25T07:43:40.869Z,-5.00
2019-01-25T07:46:10.338Z,-5.00
2019-01-25T07:48:39.966Z,-5.00
2019-01-25T07:51:09.478Z,-4.90
2019-01-25T07:53:39.297Z,-4.90
2019-01-25T07:56:08.757Z,-4.80
2019-01-25T07:58:38.250Z,-4.70
2019-01-25T08:01:07.789Z,-4.70
2019-01-25T08:03:37.229Z,-4.60
2019-01-25T08:06:06.797Z,-4.50
2019-01-25T08:08:36.217Z,-4.40
2019-01-25T08:11:05.906Z,-4.50
